createdAt,value
2018-11-07T00:00:19.470Z,5.97
2018-11-07T00:02:48.820Z,5.94
2018-11-07T00:05:19.150Z,6.01
2018-11-07T00:07:48.707Z,6.04
2018-11-07T00:10:17.893Z,6.12
2018-11-07T00:12:47.154Z,6.16
2018-11-07T00:15:17.198Z,6.34
2018-11-07T00:17:46.902Z,6.29
2018-11-07T00:20:17.339Z,6.19
2018-11-07T00:22:46.434Z,6.22
2018-11-07T00:25:15.558Z,6.30
2018-11-07T00:27:44.806Z,6.26
2018-11-07T00:30:13.980Z,6.31
2018-11-07T00:32:43.074Z,6.24
2018-11-07T00:35:12.664Z,6.07
2018-11-07T00:37:42.910Z,6.02
2018-11-07T00:40:12.676Z,6.07
2018-11-07T00:42:41.808Z,5.96
2018-11-07T00:45:12.549Z,5.95
2018-11-07T00:47:41.971Z,6.00
2018-11-07T00:50:14.101Z,6.05
2018-11-07T00:52:43.890Z,5.98
2018-11-07T00:55:13.592Z,5.96
2018-11-07T00:57:42.914Z,6.06
2018-11-07T01:00:14.903Z,6.19
2018-11-07T01:02:44.227Z,6.35
2018-11-07T01:05:13.855Z,6.37
2018-11-07T01:07:43.996Z,6.35
2018-11-07T01:10:13.284Z,6.21
2018-11-07T01:12:42.942Z,6.25
2018-11-07T01:15:12.765Z,6.25
2018-11-07T01:17:41.963Z,6.23
2018-11-07T01:20:13.516Z,6.29
2018-11-07T01:22:42.746Z,6.36
2018-11-07T01:25:11.882Z,6.25
2018-11-07T01:27:41.001Z,6.03
2018-11-07T01:30:12.617Z,5.98
2018-11-07T01:32:41.756Z,6.12
2018-11-07T01:35:10.911Z,6.19
2018-11-07T01:37:40.124Z,6.18
2018-11-07T01:40:11.932Z,6.13
2018-11-07T01:42:41.126Z,5.97
2018-11-07T01:45:11.132Z,6.11
2018-11-07T01:47:40.243Z,6.07
2018-11-07T01:50:12.348Z,6.00
2018-11-07T01:52:41.528Z,5.84
2018-11-07T01:55:12.382Z,5.67
2018-11-07T01:57:41.827Z,5.67
2018-11-07T02:00:12.480Z,5.73
2018-11-07T02:02:43.187Z,5.61
2018-11-07T02:05:12.866Z,5.59
2018-11-07T02:07:42.442Z,5.56
2018-11-07T02:10:11.834Z,5.72
2018-11-07T02:12:41.751Z,5.64
2018-11-07T02:15:11.739Z,5.76
2018-11-07T02:17:41.080Z,5.57
2018-11-07T02:20:11.296Z,5.48
2018-11-07T02:22:40.469Z,5.56
2018-11-07T02:25:09.682Z,5.64
2018-11-07T02:27:39.418Z,5.62
2018-11-07T02:30:12.571Z,5.50
2018-11-07T02:32:41.707Z,5.41
2018-11-07T02:35:10.839Z,5.40
2018-11-07T02:37:39.987Z,5.28
2018-11-07T02:40:09.807Z,5.29
2018-11-07T02:42:39.072Z,5.53
2018-11-07T02:45:08.275Z,5.55
2018-11-07T02:47:37.460Z,5.54
2018-11-07T02:50:08.224Z,5.39
2018-11-07T02:52:37.390Z,5.47
2018-11-07T02:55:06.808Z,5.42
2018-11-07T02:57:36.016Z,5.43
2018-11-07T03:00:08.470Z,5.37
2018-11-07T03:02:37.666Z,5.51
2018-11-07T03:05:06.826Z,5.54
2018-11-07T03:07:36.407Z,5.58
2018-11-07T03:10:07.386Z,5.50
2018-11-07T03:12:36.626Z,5.28
2018-11-07T03:15:07.179Z,5.35
2018-11-07T03:17:36.366Z,5.31
2018-11-07T03:20:07.919Z,5.13
2018-11-07T03:22:37.042Z,4.91
2018-11-07T03:25:06.609Z,4.74
2018-11-07T03:27:35.801Z,4.68
2018-11-07T03:30:06.259Z,4.56
2018-11-07T03:32:35.443Z,4.48
2018-11-07T03:35:09.746Z,4.39
2018-11-07T03:37:39.265Z,4.55
2018-11-07T03:40:08.722Z,4.47
2018-11-07T03:42:39.093Z,4.43
2018-11-07T03:45:08.715Z,4.48
2018-11-07T03:47:37.837Z,4.48
2018-11-07T03:50:06.969Z,4.41
2018-11-07T03:52:36.113Z,4.32
2018-11-07T03:55:05.830Z,4.20
2018-11-07T03:57:35.410Z,4.22
2018-11-07T04:00:05.518Z,4.17
2018-11-07T04:02:34.633Z,4.21
2018-11-07T04:05:04.690Z,4.11
2018-11-07T04:07:33.978Z,4.03
2018-11-07T04:10:03.383Z,3.93
2018-11-07T04:12:32.194Z,3.80
2018-11-07T04:15:01.349Z,3.73
2018-11-07T04:17:30.494Z,3.66
2018-11-07T04:19:59.609Z,3.70
2018-11-07T04:22:28.800Z,3.88
2018-11-07T04:24:58.591Z,3.88
2018-11-07T04:27:27.686Z,3.81
2018-11-07T04:29:56.807Z,3.87
2018-11-07T04:32:25.918Z,3.96
2018-11-07T04:34:55.046Z,3.96
2018-11-07T04:37:24.150Z,3.91
2018-11-07T04:39:53.714Z,3.96
2018-11-07T04:42:22.815Z,4.01
2018-11-07T04:44:52.184Z,3.95
2018-11-07T04:47:21.299Z,3.82
2018-11-07T04:49:50.434Z,3.65
2018-11-07T04:52:19.520Z,3.66
2018-11-07T04:54:48.667Z,3.71
2018-11-07T04:57:17.933Z,3.75
2018-11-07T04:59:47.071Z,3.62
2018-11-07T05:02:16.609Z,3.56
2018-11-07T05:04:45.769Z,3.46
2018-11-07T05:07:14.958Z,3.44
2018-11-07T05:09:44.850Z,3.64
2018-11-07T05:12:13.974Z,3.66
2018-11-07T05:14:43.107Z,3.56
2018-11-07T05:17:12.265Z,3.51
2018-11-07T05:19:41.514Z,3.55
2018-11-07T05:22:10.933Z,3.71
2018-11-07T05:24:40.150Z,3.74
2018-11-07T05:27:09.282Z,3.73
2018-11-07T05:29:38.406Z,3.65
2018-11-07T05:32:07.639Z,3.66
2018-11-07T05:34:38.991Z,3.56
2018-11-07T05:37:08.147Z,3.44
2018-11-07T05:39:37.259Z,3.36
2018-11-07T05:42:06.666Z,3.39
2018-11-07T05:44:35.813Z,3.49
2018-11-07T05:47:05.318Z,3.58
2018-11-07T05:49:34.502Z,3.53
2018-11-07T05:52:03.839Z,3.66
2018-11-07T05:54:32.933Z,3.73
2018-11-07T05:57:02.471Z,3.68
2018-11-07T05:59:31.215Z,3.80
2018-11-07T06:02:00.382Z,3.78
2018-11-07T06:04:29.510Z,3.70
2018-11-07T06:06:58.605Z,3.88
2018-11-07T06:09:27.745Z,3.75
2018-11-07T06:11:56.855Z,3.65
2018-11-07T06:14:25.961Z,3.55
2018-11-07T06:16:55.119Z,3.49
2018-11-07T06:19:24.231Z,3.59
2018-11-07T06:21:53.417Z,3.59
2018-11-07T06:24:22.575Z,3.50
2018-11-07T06:26:53.390Z,3.74
2018-11-07T06:29:22.881Z,3.77
2018-11-07T06:31:52.279Z,3.63
2018-11-07T06:34:21.405Z,3.56
2018-11-07T06:36:50.574Z,3.48
2018-11-07T06:39:19.669Z,3.49
2018-11-07T06:41:48.775Z,3.71
2018-11-07T06:44:17.971Z,3.73
2018-11-07T06:46:47.474Z,3.73
2018-11-07T06:49:16.579Z,3.61
2018-11-07T06:51:45.738Z,3.61
2018-11-07T06:54:15.498Z,3.56
2018-11-07T06:56:44.637Z,3.62
2018-11-07T06:59:13.798Z,3.57
2018-11-07T07:01:42.593Z,3.60
2018-11-07T07:04:12.046Z,3.59
2018-11-07T07:06:41.205Z,3.54
2018-11-07T07:09:11.024Z,3.54
2018-11-07T07:11:40.538Z,3.64
2018-11-07T07:14:10.098Z,3.73
2018-11-07T07:16:39.254Z,3.64
2018-11-07T07:19:08.377Z,3.69
2018-11-07T07:21:37.506Z,3.68
2018-11-07T07:24:06.674Z,3.74
2018-11-07T07:26:36.586Z,3.58
2018-11-07T07:29:06.186Z,3.69
2018-11-07T07:31:35.313Z,3.76
2018-11-07T07:34:04.446Z,3.78
2018-11-07T07:36:33.578Z,3.79
2018-11-07T07:39:02.706Z,3.87
2018-11-07T07:41:33.698Z,3.95
2018-11-07T07:44:03.079Z,3.96
2018-11-07T07:46:32.568Z,4.01
2018-11-07T07:49:02.067Z,4.10
2018-11-07T07:51:31.291Z,4.18
2018-11-07T07:54:00.408Z,4.20
2018-11-07T07:56:29.583Z,4.17
2018-11-07T07:58:58.753Z,4.24
2018-11-07T08:01:27.963Z,4.43
2018-11-07T08:03:57.134Z,4.65
2018-11-07T08:06:26.978Z,4.80
2018-11-07T08:08:56.094Z,4.94
2018-11-07T08:11:25.256Z,5.07
2018-11-07T08:13:54.443Z,5.19
2018-11-07T08:16:23.868Z,5.35
2018-11-07T08:18:53.029Z,5.40
2018-11-07T08:21:22.244Z,5.45
2018-11-07T08:23:51.460Z,5.57
2018-11-07T08:26:20.589Z,5.63
2018-11-07T08:28:49.702Z,5.69
2018-11-07T08:31:18.840Z,5.73
2018-11-07T08:33:47.974Z,5.82
2018-11-07T08:36:17.084Z,5.94
2018-11-07T08:38:46.223Z,6.02
2018-11-07T08:41:15.941Z,6.18
2018-11-07T08:43:45.092Z,6.29
2018-11-07T08:46:14.210Z,6.40
2018-11-07T08:48:43.352Z,6.43
2018-11-07T08:51:12.890Z,6.48
2018-11-07T08:53:42.191Z,6.62
2018-11-07T08:56:11.326Z,6.67
2018-11-07T08:58:40.554Z,6.79
2018-11-07T09:01:09.752Z,6.90
2018-11-07T09:03:38.538Z,7.06
2018-11-07T09:06:07.686Z,7.19
2018-11-07T09:08:36.830Z,7.26
2018-11-07T09:11:05.960Z,7.34
2018-11-07T09:13:35.104Z,7.41
2018-11-07T09:16:04.222Z,7.44
2018-11-07T09:18:33.443Z,7.22
2018-11-07T09:21:02.562Z,7.16
2018-11-07T09:23:31.690Z,7.31
2018-11-07T09:26:00.863Z,7.39
2018-11-07T09:28:30.349Z,7.54
2018-11-07T09:30:59.477Z,7.58
2018-11-07T09:33:28.631Z,7.71
2018-11-07T09:35:57.747Z,7.74
2018-11-07T09:38:26.885Z,7.87
2018-11-07T09:40:56.038Z,7.95
2018-11-07T09:43:25.145Z,8.12
2018-11-07T09:45:54.261Z,8.21
2018-11-07T09:48:23.805Z,8.24
2018-11-07T09:50:52.845Z,8.35
2018-11-07T09:53:21.986Z,8.38
2018-11-07T09:55:51.127Z,8.34
2018-11-07T09:58:20.363Z,8.26
2018-11-07T10:00:49.206Z,8.33
2018-11-07T10:03:18.595Z,8.35
2018-11-07T10:05:47.592Z,8.41
2018-11-07T10:08:16.827Z,8.52
2018-11-07T10:10:45.953Z,8.73
2018-11-07T10:13:15.078Z,8.79
2018-11-07T10:15:44.618Z,9.00
2018-11-07T10:18:13.410Z,9.18
2018-11-07T10:20:42.648Z,9.24
2018-11-07T10:23:11.955Z,9.28
2018-11-07T10:25:41.356Z,9.36
2018-11-07T10:28:10.379Z,9.43
2018-11-07T10:30:39.482Z,9.48
2018-11-07T10:33:08.859Z,9.57
2018-11-07T10:35:37.974Z,9.65
2018-11-07T10:38:07.398Z,9.74
2018-11-07T10:40:36.454Z,9.84
2018-11-07T10:43:05.601Z,9.97
2018-11-07T10:45:34.722Z,10.24
2018-11-07T10:48:03.878Z,10.32
2018-11-07T10:50:33.033Z,10.55
2018-11-07T10:53:03.566Z,10.64
2018-11-07T10:55:32.682Z,10.80
2018-11-07T10:58:05.487Z,11.03
2018-11-07T11:00:39.908Z,11.18
2018-11-07T11:03:14.497Z,11.29
2018-11-07T11:05:43.158Z,11.44
2018-11-07T11:08:12.250Z,11.42
2018-11-07T11:10:41.411Z,11.68
2018-11-07T11:13:10.531Z,11.71
2018-11-07T11:15:39.633Z,11.90
2018-11-07T11:18:08.773Z,12.10
2018-11-07T11:20:38.757Z,12.01
2018-11-07T11:23:08.126Z,12.18
2018-11-07T11:25:37.374Z,12.43
2018-11-07T11:28:06.470Z,12.82
2018-11-07T11:30:34.494Z,12.92
2018-11-07T11:33:03.608Z,12.96
2018-11-07T11:35:32.715Z,12.83
2018-11-07T11:38:01.745Z,13.10
2018-11-07T11:40:31.059Z,13.39
2018-11-07T11:43:00.325Z,13.43
2018-11-07T11:45:30.261Z,13.29
2018-11-07T11:47:59.610Z,13.40
2018-11-07T11:50:28.922Z,13.52
2018-11-07T11:52:58.219Z,13.59
2018-11-07T11:55:27.341Z,13.67
2018-11-07T11:58:03.187Z,13.59
2018-11-07T12:00:32.360Z,13.44
2018-11-07T12:03:01.465Z,13.51
2018-11-07T12:05:30.565Z,13.81
2018-11-07T12:07:59.698Z,13.99
2018-11-07T12:10:29.256Z,14.25
2018-11-07T12:12:59.010Z,14.35
2018-11-07T12:15:28.767Z,14.41
2018-11-07T12:17:58.226Z,14.40
2018-11-07T12:20:27.379Z,14.55
2018-11-07T12:22:56.549Z,14.45
2018-11-07T12:25:25.667Z,14.53
2018-11-07T12:27:55.550Z,14.74
2018-11-07T12:30:25.587Z,14.68
2018-11-07T12:32:55.282Z,14.68
2018-11-07T12:35:24.442Z,14.87
2018-11-07T12:37:53.609Z,14.95
2018-11-07T12:40:22.699Z,14.94
2018-11-07T12:42:51.881Z,15.12
2018-11-07T12:45:20.951Z,15.19
2018-11-07T12:47:50.063Z,15.30
2018-11-07T12:50:20.622Z,15.44
2018-11-07T12:52:49.667Z,15.42
2018-11-07T12:55:19.561Z,15.31
2018-11-07T12:57:48.791Z,15.20
2018-11-07T13:00:21.038Z,15.61
2018-11-07T13:02:50.368Z,15.47
2018-11-07T13:05:22.126Z,15.59
2018-11-07T13:07:51.794Z,15.64
2018-11-07T13:10:21.963Z,15.68
2018-11-07T13:12:51.706Z,15.57
2018-11-07T13:15:21.671Z,15.54
2018-11-07T13:17:51.576Z,15.60
2018-11-07T13:20:22.950Z,15.65
2018-11-07T13:22:53.198Z,15.62
2018-11-07T13:25:23.325Z,15.74
2018-11-07T13:27:52.468Z,15.63
2018-11-07T13:30:22.387Z,15.63
2018-11-07T13:32:51.729Z,15.68
2018-11-07T13:35:21.018Z,15.66
2018-11-07T13:37:51.785Z,15.89
2018-11-07T13:40:22.140Z,15.89
2018-11-07T13:42:51.321Z,15.82
2018-11-07T13:45:21.587Z,15.84
2018-11-07T13:47:51.934Z,15.71
2018-11-07T13:50:21.241Z,15.93
2018-11-07T13:52:50.347Z,15.79
2018-11-07T13:55:19.478Z,15.61
2018-11-07T13:57:48.609Z,15.60
2018-11-07T14:00:19.896Z,15.45
2018-11-07T14:02:49.753Z,15.41
2018-11-07T14:05:19.059Z,15.34
2018-11-07T14:07:48.017Z,15.46
2018-11-07T14:10:24.954Z,15.39
2018-11-07T14:12:54.645Z,15.34
2018-11-07T14:15:24.449Z,15.25
2018-11-07T14:17:54.063Z,15.12
2018-11-07T14:20:22.861Z,15.10
2018-11-07T14:22:52.005Z,14.90
2018-11-07T14:25:21.124Z,14.89
2018-11-07T14:27:50.371Z,14.83
2018-11-07T14:30:20.681Z,14.76
2018-11-07T14:32:58.502Z,14.76
2018-11-07T14:35:27.666Z,14.72
2018-11-07T14:37:57.738Z,14.53
2018-11-07T14:40:26.882Z,14.75
2018-11-07T14:42:56.041Z,14.71
2018-11-07T14:45:25.138Z,14.53
2018-11-07T14:47:54.979Z,14.42
2018-11-07T14:50:24.097Z,14.21
2018-11-07T14:52:53.204Z,14.15
2018-11-07T14:55:22.301Z,14.17
2018-11-07T14:57:51.447Z,14.11
2018-11-07T15:00:20.542Z,13.98
2018-11-07T15:02:50.445Z,13.84
2018-11-07T15:05:20.332Z,13.77
2018-11-07T15:07:49.432Z,13.64
2018-11-07T15:10:18.897Z,13.53
2018-11-07T15:12:48.419Z,13.44
2018-11-07T15:15:18.929Z,13.30
2018-11-07T15:17:48.174Z,13.13
2018-11-07T15:20:17.730Z,13.03
2018-11-07T15:22:46.918Z,12.92
2018-11-07T15:25:17.021Z,12.86
2018-11-07T15:27:46.874Z,12.75
2018-11-07T15:30:16.820Z,12.57
2018-11-07T15:32:46.527Z,12.37
2018-11-07T15:35:15.890Z,12.14
2018-11-07T15:37:45.050Z,12.05
2018-11-07T15:40:16.495Z,11.90
2018-11-07T15:42:46.095Z,11.80
2018-11-07T15:45:16.674Z,11.63
2018-11-07T15:47:46.029Z,11.50
2018-11-07T15:50:20.860Z,11.45
2018-11-07T15:52:50.450Z,11.40
2018-11-07T15:55:19.496Z,11.29
2018-11-07T15:57:48.642Z,11.16
2018-11-07T16:00:19.890Z,11.09
2018-11-07T16:02:48.991Z,10.99
2018-11-07T16:05:18.483Z,10.94
2018-11-07T16:07:48.727Z,10.76
2018-11-07T16:10:17.905Z,10.64
2018-11-07T16:12:46.966Z,10.61
2018-11-07T16:15:17.756Z,10.54
2018-11-07T16:17:46.901Z,10.45
2018-11-07T16:20:17.574Z,10.34
2018-11-07T16:22:47.661Z,10.49
2018-11-07T16:25:16.808Z,10.67
2018-11-07T16:27:46.310Z,10.78
2018-11-07T16:30:18.853Z,10.80
2018-11-07T16:32:48.122Z,10.81
2018-11-07T16:35:17.274Z,10.79
2018-11-07T16:37:46.430Z,10.72
2018-11-07T16:40:16.869Z,10.69
2018-11-07T16:42:47.514Z,10.34
2018-11-07T16:45:17.654Z,10.25
2018-11-07T16:47:46.964Z,10.13
2018-11-07T16:50:16.654Z,10.01
2018-11-07T16:52:46.074Z,10.04
2018-11-07T16:55:15.532Z,9.88
2018-11-07T16:57:44.636Z,9.59
2018-11-07T17:00:16.815Z,9.35
2018-11-07T17:02:46.498Z,9.39
2018-11-07T17:05:16.036Z,9.61
2018-11-07T17:07:45.487Z,9.73
2018-11-07T17:10:15.051Z,9.67
2018-11-07T17:12:44.209Z,9.54
2018-11-07T17:15:13.505Z,9.30
2018-11-07T17:17:43.341Z,9.33
2018-11-07T17:20:13.861Z,9.18
2018-11-07T17:22:42.957Z,9.02
2018-11-07T17:25:16.151Z,8.99
2018-11-07T17:27:45.294Z,8.79
2018-11-07T17:30:16.054Z,8.66
2018-11-07T17:32:44.755Z,8.68
2018-11-07T17:35:15.056Z,8.78
2018-11-07T17:37:44.522Z,8.48
2018-11-07T17:40:17.287Z,8.40
2018-11-07T17:42:47.192Z,8.25
2018-11-07T17:45:18.838Z,8.40
2018-11-07T17:47:49.513Z,8.35
2018-11-07T17:50:20.567Z,8.40
2018-11-07T17:52:49.743Z,8.54
2018-11-07T17:55:19.953Z,8.44
2018-11-07T17:57:49.023Z,8.61
2018-11-07T18:00:20.023Z,8.47
2018-11-07T18:02:49.258Z,8.58
2018-11-07T18:05:19.873Z,8.71
2018-11-07T18:07:49.260Z,8.66
2018-11-07T18:10:19.078Z,8.60
2018-11-07T18:12:48.229Z,8.62
2018-11-07T18:15:17.522Z,8.46
2018-11-07T18:17:46.991Z,8.48
2018-11-07T18:20:17.377Z,8.38
2018-11-07T18:22:46.883Z,8.25
2018-11-07T18:25:17.318Z,8.18
2018-11-07T18:27:46.197Z,8.09
2018-11-07T18:30:16.706Z,8.19
2018-11-07T18:32:46.621Z,8.20
2018-11-07T18:35:17.694Z,8.29
2018-11-07T18:37:47.658Z,8.13
2018-11-07T18:40:18.221Z,7.93
2018-11-07T18:42:47.855Z,7.87
2018-11-07T18:45:17.225Z,7.94
2018-11-07T18:47:47.270Z,8.07
2018-11-07T18:50:17.951Z,8.19
2018-11-07T18:52:46.967Z,8.14
2018-11-07T18:55:16.880Z,8.18
2018-11-07T18:57:46.393Z,8.09
2018-11-07T19:00:17.402Z,8.12
2018-11-07T19:02:47.753Z,8.20
2018-11-07T19:05:16.965Z,8.25
2018-11-07T19:07:46.077Z,8.23
2018-11-07T19:10:17.293Z,8.17
2018-11-07T19:12:47.395Z,8.12
2018-11-07T19:15:16.925Z,8.02
2018-11-07T19:17:47.038Z,7.92
2018-11-07T19:20:17.223Z,7.91
2018-11-07T19:22:46.484Z,7.91
2018-11-07T19:25:17.522Z,7.93
2018-11-07T19:27:47.218Z,7.82
2018-11-07T19:30:19.186Z,7.85
2018-11-07T19:32:49.593Z,7.99
2018-11-07T19:35:19.842Z,7.98
2018-11-07T19:37:49.721Z,7.84
2018-11-07T19:40:20.667Z,7.71
2018-11-07T19:42:53.102Z,7.69
2018-11-07T19:45:22.812Z,7.67
2018-11-07T19:47:52.794Z,7.78
2018-11-07T19:50:22.661Z,7.84
2018-11-07T19:52:52.356Z,7.80
2018-11-07T19:55:23.129Z,7.70
2018-11-07T19:58:01.402Z,7.70
2018-11-07T20:00:30.645Z,7.72
2018-11-07T20:02:59.758Z,7.73
2018-11-07T20:05:29.026Z,7.79
2018-11-07T20:07:58.170Z,7.82
2018-11-07T20:10:27.412Z,7.70
2018-11-07T20:12:57.784Z,7.77
2018-11-07T20:15:26.914Z,7.74
2018-11-07T20:17:56.266Z,7.79
2018-11-07T20:20:25.955Z,7.80
2018-11-07T20:22:55.411Z,7.89
2018-11-07T20:25:24.603Z,8.04
2018-11-07T20:27:54.103Z,8.12
2018-11-07T20:30:24.186Z,7.94
2018-11-07T20:32:53.849Z,7.91
2018-11-07T20:35:23.797Z,7.80
2018-11-07T20:37:53.896Z,7.88
2018-11-07T20:40:23.671Z,8.10
2018-11-07T20:42:53.134Z,8.24
2018-11-07T20:45:22.534Z,8.15
2018-11-07T20:47:51.758Z,8.20
2018-11-07T20:50:22.141Z,8.26
2018-11-07T20:52:51.501Z,8.28
2018-11-07T20:55:20.665Z,8.32
2018-11-07T20:57:54.334Z,8.32
2018-11-07T21:00:24.346Z,8.27
2018-11-07T21:02:53.698Z,8.28
2018-11-07T21:05:23.458Z,8.31
2018-11-07T21:07:52.862Z,8.23
2018-11-07T21:10:23.049Z,8.34
2018-11-07T21:12:53.114Z,8.45
2018-11-07T21:15:22.596Z,8.29
2018-11-07T21:17:52.053Z,8.40
2018-11-07T21:20:21.410Z,8.36
2018-11-07T21:22:50.754Z,8.18
2018-11-07T21:25:19.757Z,8.21
2018-11-07T21:27:49.901Z,8.38
2018-11-07T21:30:25.217Z,8.42
2018-11-07T21:32:54.558Z,8.32
2018-11-07T21:35:23.726Z,8.22
2018-11-07T21:37:52.877Z,8.21
2018-11-07T21:40:22.051Z,8.40
2018-11-07T21:42:51.441Z,8.39
2018-11-07T21:45:20.517Z,8.24
2018-11-07T21:47:49.626Z,8.35
2018-11-07T21:50:18.817Z,8.36
2018-11-07T21:52:48.635Z,8.43
2018-11-07T21:55:17.765Z,8.53
2018-11-07T21:57:46.893Z,8.58
2018-11-07T22:00:18.223Z,8.61
2018-11-07T22:02:47.763Z,8.62
2018-11-07T22:05:17.602Z,8.58
2018-11-07T22:07:47.390Z,8.49
2018-11-07T22:10:18.030Z,8.30
2018-11-07T22:12:47.941Z,8.04
2018-11-07T22:15:17.166Z,7.98
2018-11-07T22:17:46.437Z,7.96
2018-11-07T22:20:20.802Z,8.05
2018-11-07T22:22:49.953Z,8.14
2018-11-07T22:25:19.109Z,8.14
2018-11-07T22:27:48.279Z,8.08
2018-11-07T22:30:18.569Z,7.95
2018-11-07T22:32:47.686Z,8.02
2018-11-07T22:35:17.870Z,8.12
2018-11-07T22:37:47.469Z,8.23
2018-11-07T22:40:18.025Z,8.31
2018-11-07T22:42:47.741Z,8.36
2018-11-07T22:45:16.910Z,8.36
2018-11-07T22:47:46.078Z,8.42
2018-11-07T22:50:16.494Z,8.42
2018-11-07T22:52:45.985Z,8.54
2018-11-07T22:55:15.206Z,8.56
2018-11-07T22:57:44.831Z,8.59
2018-11-07T23:00:22.462Z,8.47
2018-11-07T23:02:52.575Z,8.27
2018-11-07T23:05:21.933Z,8.02
2018-11-07T23:07:51.588Z,7.94
2018-11-07T23:10:21.667Z,7.95
2018-11-07T23:12:51.831Z,8.15
2018-11-07T23:15:26.984Z,8.12
2018-11-07T23:17:56.167Z,8.10
2018-11-07T23:20:25.747Z,8.02
2018-11-07T23:22:55.024Z,7.93
2018-11-07T23:25:24.610Z,8.08
2018-11-07T23:27:53.753Z,8.16
2018-11-07T23:30:22.958Z,8.14
2018-11-07T23:32:52.106Z,8.03
2018-11-07T23:35:21.878Z,8.14
2018-11-07T23:37:51.715Z,8.16
2018-11-07T23:40:21.646Z,8.19
2018-11-07T23:42:51.565Z,8.21
2018-11-07T23:45:20.421Z,8.19
2018-11-07T23:47:49.557Z,8.10
2018-11-07T23:50:18.684Z,8.13
2018-11-07T23:52:50.115Z,8.09
2018-11-07T23:55:20.454Z,8.16
2018-11-07T23:57:50.631Z,8.15
